Terminal Aerodrome Forecast
Issued by NWS

Home | Current Version | Previous Version | Text Only | Print | Product List | Glossary On
Versions: 1 2 3 4 5 6 7 8 9 10 11 12 13 14 15 16 17
444
FTAK31 PAJN 200530
TAFAJN
TAF
PAJN 200530Z 2006/2106 10009KT P6SM -SHRA FEW008 BKN025 OVC050
      TEMPO 2006/2010 6SM -SHRA BR
     FM201200 11008KT P6SM VCSH SCT015 OVC040
     FM202200 10009KT P6SM -RA SCT015 OVC030=

USA.gov is the U.S. government's official web portal to all federal, state and local government web resources and services.